createdAt,value
2019-05-18T00:01:37.183Z,10.84
2019-05-18T00:06:42.487Z,10.85
2019-05-18T00:16:59.107Z,10.92
2019-05-18T00:22:04.463Z,10.82
2019-05-18T00:27:09.717Z,10.75
2019-05-18T00:32:15.043Z,10.77
2019-05-18T00:37:20.291Z,10.68
2019-05-18T00:42:25.571Z,10.61
2019-05-18T00:47:40.888Z,10.65
2019-05-18T00:52:37.788Z,10.62
2019-05-18T00:57:43.056Z,10.56
2019-05-18T01:02:48.319Z,10.56
2019-05-18T01:07:53.603Z,10.57
2019-05-18T01:12:58.905Z,10.56
2019-05-18T01:18:04.351Z,10.58
2019-05-18T01:23:09.655Z,10.63
2019-05-18T01:28:14.930Z,10.52
2019-05-18T01:33:20.048Z,10.70
2019-05-18T01:38:25.280Z,10.65
2019-05-18T01:43:30.511Z,10.55
2019-05-18T01:48:35.726Z,10.61
2019-05-18T01:53:40.923Z,10.67
2019-05-18T01:58:46.262Z,10.66
2019-05-18T02:03:51.690Z,10.63
2019-05-18T02:08:56.925Z,10.61
2019-05-18T02:14:02.366Z,10.52
2019-05-18T02:19:07.591Z,10.51
2019-05-18T02:24:12.838Z,10.54
2019-05-18T02:29:18.138Z,10.58
2019-05-18T02:34:23.350Z,10.50
2019-05-18T02:39:28.591Z,10.53
2019-05-18T02:44:33.939Z,10.53
2019-05-18T02:49:39.283Z,10.53
2019-05-18T02:54:44.607Z,10.52
2019-05-18T02:59:49.826Z,10.52
2019-05-18T03:04:55.163Z,10.46
2019-05-18T03:10:00.240Z,10.44
2019-05-18T03:15:05.730Z,10.41
2019-05-18T03:20:11.401Z,10.48
2019-05-18T03:25:16.771Z,10.51
2019-05-18T03:30:22.089Z,10.66
2019-05-18T03:35:27.372Z,10.59
2019-05-18T03:40:32.598Z,10.68
2019-05-18T03:45:37.823Z,10.62
2019-05-18T03:50:43.682Z,10.79
2019-05-18T03:55:48.905Z,10.81
2019-05-18T04:00:54.184Z,10.87
2019-05-18T04:05:59.501Z,10.89
2019-05-18T04:11:04.915Z,10.96
2019-05-18T04:16:10.224Z,10.93
2019-05-18T04:21:15.596Z,10.83
2019-05-18T04:26:20.779Z,10.88
2019-05-18T04:31:26.005Z,10.83
2019-05-18T04:36:31.268Z,10.88
2019-05-18T04:41:36.612Z,10.84
2019-05-18T04:46:41.927Z,10.76
2019-05-18T04:51:47.060Z,10.80
2019-05-18T04:56:52.304Z,10.80
2019-05-18T05:01:57.644Z,10.66
2019-05-18T05:07:02.775Z,10.65
2019-05-18T05:12:08.107Z,10.62
2019-05-18T05:17:13.312Z,10.63
2019-05-18T05:22:18.719Z,10.62
2019-05-18T05:27:23.999Z,10.64
2019-05-18T05:32:29.322Z,10.64
2019-05-18T05:37:34.655Z,10.67
2019-05-18T05:42:39.955Z,10.68
2019-05-18T05:47:45.165Z,10.68
2019-05-18T05:52:50.364Z,10.65
2019-05-18T05:57:55.573Z,10.66
2019-05-18T06:03:00.798Z,10.71
2019-05-18T06:08:06.290Z,10.71
2019-05-18T06:13:11.631Z,10.73
2019-05-18T06:18:16.898Z,10.67
2019-05-18T06:23:22.217Z,10.65
2019-05-18T06:28:27.642Z,10.76
2019-05-18T06:33:32.805Z,10.77
2019-05-18T06:38:38.294Z,10.87
2019-05-18T06:43:43.635Z,10.85
2019-05-18T06:48:48.927Z,10.91
2019-05-18T06:53:54.406Z,10.98
2019-05-18T06:59:00.920Z,11.00
2019-05-18T07:04:06.292Z,10.96
2019-05-18T07:09:14.078Z,11.01
2019-05-18T07:14:25.729Z,11.07
2019-05-18T07:19:25.734Z,11.07
2019-05-18T07:24:31.105Z,11.18
2019-05-18T07:29:36.432Z,11.22
2019-05-18T07:34:41.670Z,11.18
2019-05-18T07:39:46.978Z,11.31
2019-05-18T07:48:57.148Z,11.41
2019-05-18T07:54:01.723Z,11.40
2019-05-18T07:59:06.783Z,11.51
2019-05-18T08:04:11.628Z,11.58
2019-05-18T08:09:16.399Z,11.49
2019-05-18T08:14:21.387Z,11.64
2019-05-18T08:19:26.391Z,11.76
2019-05-18T08:24:31.647Z,11.88
2019-05-18T08:29:36.952Z,11.81
2019-05-18T08:34:41.628Z,12.02
2019-05-18T08:39:46.295Z,12.02
2019-05-18T08:44:51.106Z,11.97
2019-05-18T08:49:55.788Z,12.16
2019-05-18T08:55:00.599Z,12.16
2019-05-18T09:00:05.834Z,12.28
2019-05-18T09:05:11.690Z,12.67
2019-05-18T09:10:16.666Z,12.48
2019-05-18T09:15:22.599Z,12.80
2019-05-18T09:20:27.827Z,13.52
2019-05-18T09:25:32.719Z,14.33
2019-05-18T09:30:37.790Z,14.31
2019-05-18T09:35:42.584Z,14.44
2019-05-18T09:40:47.155Z,14.02
2019-05-18T09:45:51.932Z,13.94
2019-05-18T09:50:56.735Z,14.01
2019-05-18T09:56:01.501Z,14.13
2019-05-18T10:01:06.327Z,14.24
2019-05-18T10:06:11.461Z,14.26
2019-05-18T10:11:16.293Z,13.98
2019-05-18T10:16:20.902Z,14.15
2019-05-18T10:21:25.738Z,14.25
2019-05-18T10:26:30.498Z,14.45
2019-05-18T10:31:35.267Z,14.48
2019-05-18T10:36:40.239Z,14.43
2019-05-18T10:41:44.983Z,14.60
2019-05-18T10:46:50.162Z,14.95
2019-05-18T10:51:55.383Z,15.05
2019-05-18T10:57:00.054Z,14.81
2019-05-18T11:02:05.715Z,14.44
2019-05-18T11:07:10.340Z,14.70
2019-05-18T11:12:16.290Z,15.18
2019-05-18T11:17:21.205Z,15.83
2019-05-18T11:22:26.471Z,15.25
2019-05-18T11:27:31.541Z,15.68
2019-05-18T11:32:37.166Z,15.79
2019-05-18T11:37:42.170Z,15.58
2019-05-18T11:42:47.366Z,15.50
2019-05-18T11:47:52.674Z,15.26
2019-05-18T11:52:57.885Z,15.65
2019-05-18T11:58:02.659Z,15.88
2019-05-18T12:03:07.239Z,15.61
2019-05-18T12:08:11.901Z,16.27
2019-05-18T12:13:17.093Z,16.85
2019-05-18T12:18:21.951Z,17.77
2019-05-18T12:23:26.754Z,17.91
2019-05-18T12:28:31.639Z,17.46
2019-05-18T12:33:37.012Z,17.20
2019-05-18T12:38:41.715Z,17.37
2019-05-18T12:43:46.991Z,16.93
2019-05-18T12:48:51.750Z,16.89
2019-05-18T12:53:56.504Z,17.57
2019-05-18T12:59:01.255Z,17.72
2019-05-18T13:04:06.086Z,17.09
2019-05-18T13:09:11.483Z,16.95
2019-05-18T13:14:16.602Z,17.55
2019-05-18T13:19:21.488Z,17.51
2019-05-18T13:24:26.289Z,17.30
2019-05-18T13:29:31.092Z,17.98
2019-05-18T13:34:36.243Z,18.48
2019-05-18T13:39:40.894Z,18.57
2019-05-18T13:44:45.545Z,18.64
2019-05-18T13:49:50.380Z,19.23
2019-05-18T13:55:03.611Z,19.30
2019-05-18T14:00:02.044Z,18.69
2019-05-18T14:05:07.194Z,18.95
2019-05-18T14:10:12.722Z,18.79
2019-05-18T14:15:17.872Z,18.61
2019-05-18T14:20:26.064Z,18.62
2019-05-18T14:25:29.439Z,18.60
2019-05-18T14:30:34.195Z,18.61
2019-05-18T14:35:39.039Z,18.23
2019-05-18T14:40:43.989Z,17.96
2019-05-18T14:45:49.536Z,17.89
2019-05-18T14:50:55.114Z,18.02
2019-05-18T14:56:00.032Z,18.12
2019-05-18T15:01:04.691Z,16.90
2019-05-18T15:06:09.461Z,17.11
2019-05-18T15:11:14.211Z,16.80
2019-05-18T15:16:18.990Z,16.25
2019-05-18T15:21:24.344Z,16.45
2019-05-18T15:26:29.046Z,16.57
2019-05-18T15:31:33.765Z,16.52
2019-05-18T15:36:38.548Z,16.54
2019-05-18T15:41:43.413Z,16.12
2019-05-18T15:46:48.196Z,16.08
2019-05-18T15:51:53.495Z,16.33
2019-05-18T15:56:58.137Z,16.20
2019-05-18T16:02:06.481Z,15.52
2019-05-18T16:07:09.459Z,15.08
2019-05-18T16:12:14.332Z,14.90
2019-05-18T16:17:19.068Z,14.63
2019-05-18T16:22:24.344Z,14.70
2019-05-18T16:27:29.915Z,14.48
2019-05-18T16:32:35.046Z,14.40
2019-05-18T16:37:40.367Z,14.35
2019-05-18T16:42:46.664Z,14.27
2019-05-18T16:47:51.494Z,14.17
2019-05-18T16:52:56.416Z,14.01
2019-05-18T16:58:01.051Z,13.89
2019-05-18T17:03:05.681Z,13.75
2019-05-18T17:08:10.507Z,13.62
2019-05-18T17:13:15.638Z,13.54
2019-05-18T17:18:20.273Z,13.44
2019-05-18T17:23:25.214Z,13.28
2019-05-18T17:28:30.209Z,13.18
2019-05-18T17:33:34.957Z,12.90
2019-05-18T17:38:39.641Z,13.04
2019-05-18T17:43:44.656Z,13.02
2019-05-18T17:54:00.046Z,13.17
2019-05-18T17:59:04.665Z,13.26
2019-05-18T18:04:09.264Z,13.10
2019-05-18T18:09:13.987Z,13.05
2019-05-18T18:14:18.832Z,12.94
2019-05-18T18:24:28.259Z,12.75
2019-05-18T18:29:32.944Z,12.80
2019-05-18T18:34:37.580Z,12.71
2019-05-18T18:39:42.305Z,12.63
2019-05-18T18:44:47.186Z,12.19
2019-05-18T18:49:51.796Z,12.19
2019-05-18T19:05:57.918Z,11.99
2019-05-18T19:16:13.756Z,11.70
2019-05-18T19:21:18.561Z,11.70
2019-05-18T19:26:23.591Z,11.56
2019-05-18T19:31:28.470Z,11.43
2019-05-18T19:36:33.190Z,11.27
2019-05-18T19:41:37.870Z,11.16
2019-05-18T19:46:42.669Z,11.04
2019-05-18T19:51:47.289Z,10.81
2019-05-18T19:56:52.212Z,10.75
2019-05-18T20:01:57.090Z,10.54
2019-05-18T20:07:01.840Z,10.36
2019-05-18T20:12:06.609Z,10.30
2019-05-18T20:17:11.382Z,10.33
2019-05-18T20:22:16.030Z,10.41
2019-05-18T20:27:20.927Z,10.38
2019-05-18T20:32:25.926Z,10.38
2019-05-18T20:37:30.859Z,10.33
2019-05-18T20:42:37.686Z,10.25
2019-05-18T20:47:42.012Z,10.25
2019-05-18T20:52:46.849Z,10.35
2019-05-18T20:57:51.530Z,10.48
2019-05-18T21:02:56.370Z,10.49
2019-05-18T21:08:01.169Z,10.58
2019-05-18T21:13:05.873Z,10.67
2019-05-18T21:18:10.650Z,10.69
2019-05-18T21:23:15.587Z,10.67
2019-05-18T21:28:20.431Z,10.66
2019-05-18T21:33:25.146Z,10.64
2019-05-18T21:38:29.798Z,10.55
2019-05-18T21:43:34.721Z,10.54
2019-05-18T21:48:39.409Z,10.48
2019-05-18T21:53:44.169Z,10.57
2019-05-18T21:58:48.965Z,10.66
2019-05-18T22:03:53.669Z,10.63
2019-05-18T22:08:58.513Z,10.58
2019-05-18T22:14:03.556Z,10.72
2019-05-18T22:19:08.358Z,10.64
2019-05-18T22:24:13.449Z,10.57
2019-05-18T22:29:18.099Z,10.53
2019-05-18T22:34:22.912Z,10.61
2019-05-18T22:39:27.642Z,10.58
2019-05-18T22:44:33.429Z,10.61
2019-05-18T22:49:38.170Z,10.68
2019-05-18T22:54:42.834Z,10.64
2019-05-18T22:59:47.981Z,10.65
2019-05-18T23:04:52.729Z,10.47
2019-05-18T23:09:57.543Z,10.43
2019-05-18T23:15:02.229Z,10.39
2019-05-18T23:20:07.542Z,10.28
2019-05-18T23:25:12.548Z,10.24
2019-05-18T23:30:17.394Z,10.02
2019-05-18T23:35:22.366Z,9.99
2019-05-18T23:40:27.150Z,9.81
2019-05-18T23:45:31.863Z,9.75
2019-05-18T23:50:36.570Z,9.72
2019-05-18T23:55:41.305Z,9.74
